Tropical Cyclones
[Index]
Main Index Home Page Stock Weather Photos Extreme Storms Discussion Storm News and Storm Chasing Reports Tropical Cyclones / Hurricanes / Typhoons Weather Data and Links Wild Fires / Bushfires Weather Observation Techniques Weather Picture Catalogue Tornado Pictures and Reports Stock Video Footage and DVDs for sale
Season 2011-2012 Tropical Cyclone KUENA Track Map
Season 2011-2012 Summaries: [BoM-AU] [JTWC-AU] [JTWC-SIO] [JTWC-SPAC] [JTWC-SH]
<<- Previous TC | JTWC 2011-2012 Season | Next TC ->>

click for intensity scale information  Lat/long Grid: Show Hide

 Date Labels: Show Hide

Joint Typhoon Warning Centre Cyclone Data

Name: KUENA

03 Jun 2012 12:00 UTC to 08 Jun 2012 12:00 UTC

    date/time    lat    long     hPa   cat  kts
2012-06-03 12    7.2    65.5    1007         20          
2012-06-03 18    7.8    65.5    1004         25          
2012-06-04 00    8.1    64.8    1004         25          
2012-06-04 06    8.4    64.2    1004         25          
2012-06-04 12    8.8    63.6    1004         25          
2012-06-04 18    9.3    63.1    1000         30          
2012-06-05 00    8.9    62.6    1000         30          
2012-06-05 06    8.9    62.1    1000         30          
2012-06-05 12    9.2    61.5    1000         30          
2012-06-05 18    9.4    60.5     996         35          
2012-06-06 00    9.6    59.5     989    1    45          
2012-06-06 06    9.9    58.6     985    1    50          
2012-06-06 06    9.9    58.6     985    1    50          
2012-06-06 12   10.3    57.8     982    2    55          
2012-06-06 12   10.3    57.8     982    2    55          
2012-06-06 18   10.1    56.7     985    1    50          
2012-06-07 00    9.4    56.3     985    1    45          
2012-06-07 06    9.0    56.0    1000         30          
2012-06-07 12    8.7    55.6    1000         30          
2012-06-07 18    8.3    55.3    1004         25          
2012-06-08 00    8.1    55.0    1004         25          
2012-06-08 06    7.9    54.7    1004         25          
2012-06-08 12    7.8    54.5    1004         25          
Winds are 1-min average.

Tropical cyclone tracks developed by Michael Bath using data from the Joint Typhoon Warning Centre Best Tracks and Google Maps.


[Australian Severe Weather index] [Copyright Notice] [Email Contacts] [Search This Site] [Privacy Policy]
Document: tropical_cyclone_kuena.htm Updated: 28 June 2017